Latest Coastal Weather Observations for Cape Bruny AWS

IDT60701

Issued at 8:03 pm EST Friday 30 September 2016 (issued every 10 minutes, with the page automatically refreshed every 10 minutes)

About coastal observations | Map of coastal stations | Coastal observations for TAS | Marine services | Other Formats
Station Details ID: 094198 Name: CAPE BRUNY (CAPE BRUNY) Lat: -43.49 Lon: 147.14 Height: 59.7 m
Data from the previous 72 hours. | See also: Recent months at Cape Bruny AWS
Date/Time
EST
Temp
°C
Wind Pressure Rain since
9am
mm
Weather Cloud Vis
km
Sea
Height
m
Swell
Dir  Spd
kts
Gust
kts
hPa Trend Height
m
Period
s
Dir
30/08:00pm 10.4 NE 18 26 990.9 - 4.8 - - - - - - -
30/07:47pm 10.7 NE 17 28 990.7 - 4.8 - - - - - - -
30/07:30pm 10.8 NE 16 24 990.6 - 4.8 - - - - - - -
30/07:00pm 11.2 NE 16 24 990.0 - 4.8 - - - - - - -
30/06:30pm 11.4 NE 17 28 989.6 - 4.8 - - - - - - -
30/06:27pm 11.6 NE 17 28 989.5 - 4.8 - - - - - - -
30/06:00pm 11.6 NE 14 18 989.0 - 4.8 - - - - - - -
30/05:30pm 12.2 NE 16 22 988.4 - 4.8 - - - - - - -
30/05:00pm 12.7 ENE 15 23 987.9 - 4.8 - - - - - - -
30/04:30pm 12.7 NE 15 24 987.2 - 4.8 - - - - - - -
30/04:00pm 12.2 ENE 13 20 986.9 - 4.8 - - - - - - -
30/03:30pm 12.0 NE 12 19 986.8 - 4.8 - - - - - - -
30/03:00pm 11.8 ENE 11 14 986.8 - 4.8 Recent precip. - - - - - -
30/02:30pm 12.0 ENE 10 14 986.7 - 4.8 - - - - - - -
30/02:16pm 11.9 ESE 18 27 986.4 - 4.8 - - - - - - -
30/02:00pm 11.8 ESE 23 29 986.7 - 4.6 - - - - - - -
30/01:30pm 11.5 SE 23 34 987.5 - 4.0 - - - - - - -
30/01:06pm 11.8 SE 25 35 988.0 - 3.6 - - - - - - -
30/01:00pm 11.8 ESE 28 36 988.0 - 3.6 - - - - - - -
30/12:48pm 12.0 ESE 30 40 988.1 - 3.6 - - - - - - -
30/12:30pm 12.1 ESE 31 40 988.2 - 3.6 - - - - - - -
30/12:00pm 12.2 ESE 31 39 988.9 - 3.6 Recent precip. - - - - - -
30/11:30am 12.2 ESE 30 36 989.3 - 3.6 - - - - - - -
30/11:00am 12.1 ESE 31 38 989.7 - 3.4 - - - - - - -
30/10:30am 12.0 ESE 31 38 990.2 - 3.2 - - - - - - -
30/10:00am 11.9 ESE 31 37 990.5 - 2.8 - - - - - - -
30/09:30am 11.8 ESE 35 43 990.5 - 1.8 - - - - - - -
30/09:08am 11.7 ESE 35 45 990.5 - 0.4 - - - - - - -
30/09:00am 11.7 ESE 33 40 990.8 - 9.6 Rain - - - - - -
30/08:37am 11.7 ESE 31 41 991.4 - 8.0 - - - - - - -
30/08:30am 11.7 ESE 29 37 991.6 - 7.8 - - - - - - -
30/08:00am 11.7 ESE 27 34 992.3 - 6.6 - - - - - - -
30/07:30am 11.8 ESE 29 35 992.4 - 5.4 - - - - - - -
30/07:00am 11.8 ESE 31 37 992.5 - 4.6 - - - - - - -
30/06:30am 11.9 ESE 30 37 992.4 - 3.4 - - - - - - -
30/06:05am 11.9 E 31 41 992.2 - 2.6 - - - - - - -
30/06:00am 12.0 E 31 40 992.3 - 2.6 Rain - - - - - -
30/05:31am 12.7 E 28 38 992.4 - 2.2 - - - - - - -
30/05:30am 12.7 E 29 38 992.4 - 2.2 - - - - - - -
30/05:06am 12.7 E 30 40 991.9 - 2.2 - - - - - - -
30/05:00am 12.6 E 28 36 992.0 - 2.2 - - - - - - -
30/04:31am 12.6 E 27 38 992.0 - 2.2 - - - - - - -
30/04:30am 12.6 E 28 35 992.0 - 2.2 - - - - - - -
30/04:00am 12.4 E 31 45 992.0 - 2.2 - - - - - - -
30/03:30am 12.3 E 30 41 992.1 - 2.0 - - - - - - -
30/03:00am 12.3 E 28 38 992.5 - 1.8 Recent precip. - - - - - -
30/02:33am 12.3 E 26 36 992.6 - 1.8 - - - - - - -
30/02:30am 12.2 E 25 34 992.8 - 1.6 - - - - - - -
30/02:00am 12.3 E 29 44 992.7 - 1.6 - - - - - - -
30/01:33am 12.3 E 26 36 993.2 - 1.4 - - - - - - -
30/01:30am 12.3 E 27 35 993.4 - 1.2 - - - - - - -
30/01:00am 12.2 E 30 42 993.4 - 1.2 - - - - - - -
30/12:30am 12.2 E 32 46 993.2 - 1.2 - - - - - - -
30/12:00am 12.0 E 31 41 993.1 - 1.2 Recent precip. - - - - - -
 
Date/Time
EST
Temp
°C
Wind Pressure Rain since
9am
mm
Weather Cloud Vis
km
Sea
Height
m
Swell
Dir  Spd
kts
Gust
kts
hPa Trend Height
m
Period
s
Dir
29/11:32pm 11.9 ENE 29 39 993.7 - 1.0 - - - - - - -
29/11:30pm 11.9 ENE 31 39 993.6 - 1.0 - - - - - - -
29/11:00pm 11.8 ENE 28 38 993.8 - 0.6 - - - - - - -
29/10:34pm 12.1 ENE 31 42 993.9 - 0.4 - - - - - - -
29/10:30pm 12.1 ENE 30 39 993.8 - 0.4 - - - - - - -
29/10:00pm 12.3 ENE 31 43 994.2 - 0.2 - - - - - - -
29/09:30pm 12.8 ENE 29 40 994.1 - 0.0 - - - - - - -
29/09:00pm 12.9 ENE 29 39 994.2 - 0.0 - - - - - - -
29/08:30pm 13.0 ENE 27 37 994.7 - 0.0 - - - - - - -
29/08:10pm 12.9 ENE 25 35 994.7 - 0.0 - - - - - - -
29/08:00pm 13.0 ENE 26 33 994.8 - 0.0 - - - - - - -
29/07:37pm 13.0 ENE 27 37 994.6 - 0.0 - - - - - - -
29/07:30pm 13.1 ENE 28 37 994.5 - 0.0 - - - - - - -
29/07:00pm 13.0 ENE 26 37 994.2 - 0.0 - - - - - - -
29/06:30pm 13.1 ENE 25 34 994.3 - 0.0 - - - - - - -
29/06:11pm 13.1 ENE 27 37 994.2 - 0.0 - - - - - - -
29/06:00pm 13.1 ENE 25 33 994.3 - 0.0 - - - - - - -
29/05:33pm 13.2 ENE 24 34 994.3 - 0.0 - - - - - - -
29/05:30pm 13.2 ENE 25 34 994.2 - 0.0 - - - - - - -
29/05:00pm 13.2 ENE 23 37 994.3 - 0.0 - - - - - - -
29/04:51pm 13.2 ENE 24 37 994.1 - 0.0 - - - - - - -
29/04:30pm 13.3 ENE 23 31 994.0 - 0.0 - - - - - - -
29/04:00pm 13.4 ENE 23 30 994.1 - 0.0 - - - - - - -
29/03:30pm 13.6 ENE 25 33 994.1 - 0.0 - - - - - - -
29/03:06pm 13.4 ENE 22 32 994.3 - 0.0 - - - - - - -
29/03:00pm 13.4 ENE 24 32 994.2 - 0.0 - - - - - - -
29/02:30pm 13.4 ENE 22 32 994.5 - 0.0 - - - - - - -
29/02:00pm 13.5 ENE 24 31 994.7 - 0.0 - - - - - - -
29/01:30pm 13.5 ENE 21 28 994.9 - 0.0 - - - - - - -
29/01:00pm 13.6 ENE 20 26 995.2 - 0.0 - - - - - - -
29/12:30pm 13.2 ENE 16 23 995.7 - 0.0 - - - - - - -
29/12:00pm 13.1 ENE 23 30 996.2 - 0.0 - - - - - - -
29/11:38am 14.4 ENE 21 32 996.2 - 0.0 - - - - - - -
29/11:30am 14.3 ENE 22 29 996.1 - 0.0 - - - - - - -
29/11:00am 13.5 ENE 22 32 996.5 - 0.0 - - - - - - -
29/10:30am 15.1 ENE 22 33 996.8 - 0.0 - - - - - - -
29/10:10am 15.0 ENE 21 33 996.8 - 0.0 - - - - - - -
29/10:00am 14.9 NE 19 27 997.0 - 0.0 - - - - - - -
29/09:34am 14.6 ENE 19 29 997.3 - 0.0 - - - - - - -
29/09:30am 14.6 NE 18 26 997.4 - 0.0 - - - - - - -
29/09:13am 14.4 ENE 17 27 997.6 - 0.0 - - - - - - -
29/09:00am 14.3 NE 17 26 997.7 - 0.0 - - - - - - -
29/08:30am 14.5 NE 19 27 997.6 - 0.0 - - - - - - -
29/08:00am 14.0 NE 16 23 997.8 - 0.0 - - - - - - -
29/07:30am 13.9 NE 18 25 997.8 - 0.0 - - - - - - -
29/07:00am 13.0 NE 13 23 998.3 - 0.0 - - - - - - -
29/06:30am 12.1 NE 10 14 998.7 - 0.0 - - - - - - -
29/06:00am 11.2 NNE 8 11 998.8 - 0.0 - - - - - - -
29/05:30am 10.4 NNE 9 14 998.9 - 0.0 - - - - - - -
29/05:00am 10.3 N 9 16 999.4 - 0.0 - - - - - - -
29/04:30am 10.5 NNE 10 16 999.7 - 0.0 - - - - - - -
29/04:00am 10.6 NNE 10 17 999.8 - 0.0 - - - - - - -
29/03:30am 10.7 NE 11 18 1000.1 - 0.0 - - - - - - -
29/03:00am 10.8 NNE 15 21 1000.2 - 0.0 - - - - - - -
29/02:30am 10.8 NE 14 22 1000.6 - 0.0 - - - - - - -
29/02:00am 10.6 NE 11 17 1001.2 - 0.0 - - - - - - -
29/01:30am 10.6 NE 10 14 1001.7 - 0.0 - - - - - - -
29/01:00am 10.9 NE 12 19 1002.2 - 0.0 - - - - - - -
29/12:30am 10.7 NE 7 9 1002.3 - 0.0 - - - - - - -
29/12:00am 10.7 ENE 6 8 1002.7 - 0.0 - - - - - - -
 
Date/Time
EST
Temp
°C
Wind Pressure Rain since
9am
mm
Weather Cloud Vis
km
Sea
Height
m
Swell
Dir  Spd
kts
Gust
kts
hPa Trend Height
m
Period
s
Dir
28/11:30pm 11.2 NE 5 7 1003.3 - 0.0 - - - - - - -
28/11:00pm 11.0 NE 6 7 1003.7 - 0.0 - - - - - - -
28/10:30pm 10.5 NE 6 8 1004.1 - 0.0 - - - - - - -
28/10:00pm 10.9 ENE 6 9 1004.4 - 0.0 - - - - - - -
28/09:30pm 10.9 NE 8 11 1004.8 - 0.0 - - - - - - -
28/09:00pm 11.2 NE 12 17 1005.1 - 0.0 - - - - - - -
28/08:30pm 11.2 NE 12 18 1005.2 - 0.0 - - - - - - -
28/08:00pm 10.8 NE 11 16 1005.3 - 0.0 - - - - - - -
28/07:30pm 10.4 NE 9 13 1005.4 - 0.0 - - - - - - -
28/07:00pm 10.6 NE 9 12 1005.5 - 0.0 - - - - - - -
28/06:30pm 10.4 NE 8 11 1005.4 - 0.0 - - - - - - -
28/06:00pm 10.9 ENE 14 19 1005.1 - 0.0 - - - - - - -
28/05:30pm 11.3 ENE 16 22 1004.7 - 0.0 - - - - - - -
28/05:00pm 11.8 ENE 18 24 1004.5 - 0.0 - - - - - - -
28/04:30pm 12.3 ENE 18 25 1004.7 - 0.0 - - - - - - -
28/04:00pm 13.2 ENE 16 23 1005.0 - 0.0 - - - - - - -
28/03:30pm 13.7 E 17 24 1005.1 - 0.0 - - - - - - -
28/03:00pm 14.7 E 14 19 1005.5 - 0.0 - - - - - - -
28/02:30pm 14.7 E 16 20 1005.8 - 0.0 - - - - - - -
28/02:00pm 14.6 ESE 17 22 1006.2 - 0.0 - - - - - - -
28/01:30pm 14.3 ESE 17 21 1006.4 - 0.0 - - - - - - -
28/01:00pm 14.7 ESE 15 19 1007.1 - 0.0 - - - - - - -
28/12:30pm 15.2 ENE 8 15 1007.7 - 0.0 - - - - - - -
28/12:00pm 15.2 NE 9 12 1008.1 - 0.0 - - - - - - -
28/11:30am 15.1 NE 8 13 1008.2 - 0.0 - - - - - - -
28/11:00am 14.4 NNE 8 13 1008.6 - 0.0 - - - - - - -
28/10:30am 13.8 NW 5 7 1009.0 - 0.0 - - - - - - -
28/10:00am 14.0 WNW 7 9 1009.1 - 0.0 - - - - - - -
28/09:30am 13.1 NW 7 11 1009.3 - 0.0 - - - - - - -
28/09:00am 12.9 NW 7 10 1009.3 - 0.6 - - - - - - -
28/08:30am 11.9 NW 7 11 1009.3 - 0.6 - - - - - - -
28/08:00am 11.2 NNW 8 10 1009.3 - 0.6 - - - - - - -
28/07:30am 10.5 NW 11 16 1009.3 - 0.6 - - - - - - -
28/07:00am 10.1 NW 11 16 1009.1 - 0.6 - - - - - - -
28/06:30am 9.5 WNW 8 12 1008.9 - 0.6 - - - - - - -
28/06:00am 9.4 WNW 11 16 1008.6 - 0.6 - - - - - - -
28/05:30am 9.2 NW 14 18 1008.3 - 0.6 - - - - - - -
28/05:00am 9.1 WNW 11 14 1008.2 - 0.6 - - - - - - -
28/04:30am 9.3 NW 11 16 1007.9 - 0.6 - - - - - - -
28/04:00am 9.3 WNW 11 14 1007.8 - 0.6 - - - - - - -
28/03:30am 9.7 W 10 12 1007.7 - 0.6 - - - - - - -
28/03:00am 10.4 W 11 16 1007.5 - 0.6 - - - - - - -
28/02:30am 9.4 NW 5 7 1007.2 - 0.6 - - - - - - -
28/02:00am 9.5 NW 7 8 1007.0 - 0.6 - - - - - - -
28/01:30am 9.9 NW 7 9 1006.9 - 0.4 - - - - - - -
28/01:00am 9.8 NNW 7 9 1006.8 - 0.4 - - - - - - -
28/12:30am 9.9 NW 7 10 1006.9 - 0.4 - - - - - - -
28/12:00am 9.6 N 9 10 1006.9 - 0.4 - - - - - - -
 
Date/Time
EST
Temp
°C
Wind Pressure Rain since
9am
mm
Weather Cloud Vis
km
Sea
Height
m
Swell
Dir  Spd
kts
Gust
kts
hPa Trend Height
m
Period
s
Dir
27/11:30pm 9.3 N 8 11 1006.9 - 0.4 - - - - - - -
27/11:00pm 9.5 N 8 11 1006.8 - 0.4 - - - - - - -
27/10:30pm 9.5 N 9 12 1006.9 - 0.4 - - - - - - -
27/10:00pm 9.3 NNE 8 10 1006.9 - 0.4 - - - - - - -
27/09:30pm 10.0 NW 8 9 1007.2 - 0.4 - - - - - - -
27/09:00pm 9.8 NW 5 7 1007.3 - 0.4 - - - - - - -
27/08:30pm 10.0 NE 3 5 1007.3 - 0.4 - - - - - - -

Other Formats:

Comma delimited format used in spreadsheet applications
http://www.bom.gov.au/fwo/IDT60701/IDT60701.95967.axf

JavaScript Object Notation format (JSON) in row-major order
http://www.bom.gov.au/fwo/IDT60701/IDT60701.95967.json